Time;durP1;ratioP1;P1;durP2;ratioP2;P2;SDS_P1;SDS_P2;PMS_P1;PMS_P2;Temp;Humidity;BMP_temperature;BMP_pressure;BME280_temperature;BME280_humidity;BME280_pressure;Samples;Min_cycle;Max_cycle;Signal;HPM_P1;HPM_P2
2022/07/12 00:02:06;;;;;;;6.13;2.83;;;15.40;99.90;;;;;;5073628;28;20033;-77
2022/07/12 00:04:31;;;;;;;5.90;2.90;;;15.30;99.90;;;;;;5073549;28;20491;-77
2022/07/12 00:06:57;;;;;;;12.73;3.83;;;15.30;99.90;;;;;;5073597;28;20045;-77
2022/07/12 00:09:23;;;;;;;7.88;3.65;;;15.30;99.90;;;;;;5073404;28;20434;-77
2022/07/12 00:11:49;;;;;;;8.50;3.63;;;15.30;99.90;;;;;;5073487;28;20123;-77
2022/07/12 00:14:15;;;;;;;8.18;3.33;;;15.30;99.90;;;;;;5089002;28;20060;-77
2022/07/12 00:16:40;;;;;;;7.93;3.72;;;15.40;99.90;;;;;;5073441;28;20032;-77
2022/07/12 00:19:06;;;;;;;11.15;4.05;;;15.30;99.90;;;;;;5073650;28;20044;-77
2022/07/12 00:21:32;;;;;;;11.40;3.17;;;15.30;99.90;;;;;;5073144;28;20135;-77
2022/07/12 00:23:58;;;;;;;22.48;3.75;;;15.30;99.90;;;;;;5073390;28;20442;-77
2022/07/12 00:26:23;;;;;;;5.75;2.38;;;15.30;99.90;;;;;;5073192;28;20071;-77
2022/07/12 00:28:49;;;;;;;6.20;2.72;;;15.30;99.90;;;;;;5073785;28;20045;-77
2022/07/12 00:31:15;;;;;;;5.95;3.15;;;15.30;99.90;;;;;;5073342;28;20123;-77
2022/07/12 00:33:40;;;;;;;14.25;3.60;;;15.20;99.90;;;;;;5073274;28;20387;-77
2022/07/12 00:36:06;;;;;;;26.20;4.05;;;15.20;99.90;;;;;;5071913;28;20048;-77
2022/07/12 00:38:32;;;;;;;10.38;4.07;;;15.20;99.90;;;;;;5073292;28;20471;-77
2022/07/12 00:40:58;;;;;;;8.63;3.67;;;15.10;99.90;;;;;;5077036;28;20036;-77
2022/07/12 00:43:23;;;;;;;12.10;3.97;;;15.10;99.90;;;;;;5076813;28;20048;-77
2022/07/12 00:45:49;;;;;;;15.52;4.10;;;15.20;99.90;;;;;;5092808;28;20479;-77
2022/07/12 00:48:17;;;;;;;12.77;3.55;;;15.10;99.90;;;;;;5076723;28;20475;-77
2022/07/12 00:50:47;;;;;;;16.17;4.60;;;15.10;99.90;;;;;;5076794;28;20075;-77
2022/07/12 00:53:14;;;;;;;22.90;4.85;;;15.10;99.90;;;;;;5076833;28;20056;-77
2022/07/12 00:55:40;;;;;;;8.75;4.60;;;15.10;99.90;;;;;;5076551;28;20476;-77
2022/07/12 00:58:06;;;;;;;14.40;5.35;;;15.10;99.90;;;;;;5076755;28;20082;-77
2022/07/12 01:00:31;;;;;;;10.88;4.65;;;15.20;99.90;;;;;;5076672;28;20059;-77
2022/07/12 01:03:01;;;;;;;69.75;6.72;;;15.20;99.90;;;;;;5076575;28;20056;-77
2022/07/12 01:05:30;;;;;;;14.32;4.97;;;15.20;99.90;;;;;;5076585;28;20048;-77
2022/07/12 01:07:56;;;;;;;11.02;5.30;;;15.20;99.90;;;;;;5076473;28;20052;-77
2022/07/12 01:10:23;;;;;;;17.98;5.82;;;15.20;99.90;;;;;;5076836;28;20420;-77
2022/07/12 01:12:49;;;;;;;16.42;5.40;;;15.10;99.90;;;;;;5076443;28;20086;-77
2022/07/12 01:15:16;;;;;;;55.13;6.88;;;15.20;99.90;;;;;;5076446;28;20032;-77
2022/07/12 01:17:44;;;;;;;43.70;6.57;;;15.10;99.90;;;;;;5075063;28;20047;-77
2022/07/12 01:20:11;;;;;;;43.38;6.22;;;15.20;99.90;;;;;;5076053;28;20390;-77
2022/07/12 01:22:41;;;;;;;17.55;6.40;;;15.10;99.90;;;;;;5076368;28;20040;-77
2022/07/12 01:25:07;;;;;;;22.35;6.30;;;15.10;99.90;;;;;;5076287;28;20071;-77
2022/07/12 01:27:33;;;;;;;35.92;7.30;;;15.10;99.90;;;;;;5091697;28;20129;-77
2022/07/12 01:30:03;;;;;;;29.25;7.90;;;15.10;99.90;;;;;;5076172;28;20123;-77
2022/07/12 01:32:30;;;;;;;42.13;7.53;;;15.10;99.90;;;;;;5076117;28;20086;-78
2022/07/12 01:35:00;;;;;;;18.92;7.95;;;15.10;99.90;;;;;;5074636;28;20053;-77
2022/07/12 01:37:32;;;;;;;21.95;8.13;;;15.10;99.90;;;;;;5076443;28;20037;-77
2022/07/12 01:39:59;;;;;;;14.90;7.32;;;15.10;99.90;;;;;;5076055;28;20048;-77
2022/07/12 01:42:26;;;;;;;17.92;7.32;;;15.10;99.90;;;;;;5075932;28;20036;-77
2022/07/12 01:44:53;;;;;;;20.52;8.10;;;15.10;99.90;;;;;;5075822;28;20491;-77
2022/07/12 01:47:20;;;;;;;27.33;8.10;;;15.00;99.90;;;;;;5075485;28;20039;-77
2022/07/12 01:49:46;;;;;;;17.67;8.38;;;15.00;99.90;;;;;;5075825;28;20044;-77
2022/07/12 01:52:12;;;;;;;46.88;9.73;;;15.00;99.90;;;;;;5073347;28;20094;-77
2022/07/12 01:54:38;;;;;;;23.73;10.32;;;15.00;99.90;;;;;;5075680;28;20041;-77
2022/07/12 01:57:05;;;;;;;21.55;9.93;;;15.00;99.90;;;;;;5075682;28;20037;-77
2022/07/12 01:59:31;;;;;;;22.40;8.85;;;15.00;99.90;;;;;;5074306;28;20044;-77
2022/07/12 02:01:57;;;;;;;72.53;12.25;;;15.00;99.90;;;;;;5075405;28;20045;-77
2022/07/12 02:04:23;;;;;;;50.88;10.10;;;15.00;99.90;;;;;;5075534;28;20045;-77
2022/07/12 02:06:49;;;;;;;22.40;9.80;;;15.00;99.90;;;;;;5090995;28;20105;-77
2022/07/12 02:09:16;;;;;;;22.30;10.23;;;15.00;99.90;;;;;;5075351;28;20047;-77
2022/07/12 02:11:42;;;;;;;33.03;11.25;;;15.00;99.90;;;;;;5075165;28;20182;-77
2022/07/12 02:14:09;;;;;;;78.88;11.25;;;15.00;99.90;;;;;;5075183;28;20097;-77
2022/07/12 02:16:35;;;;;;;89.32;10.48;;;15.00;99.90;;;;;;5074999;28;20391;-77
2022/07/12 02:19:01;;;;;;;37.45;8.88;;;14.80;99.90;;;;;;5075127;28;20045;-77
2022/07/12 02:21:27;;;;;;;16.77;8.10;;;14.80;99.90;;;;;;5075007;28;20049;-77
2022/07/12 02:23:53;;;;;;;19.92;8.43;;;14.80;99.90;;;;;;5075360;28;20040;-77
2022/07/12 02:26:19;;;;;;;52.78;10.98;;;14.80;99.90;;;;;;5075051;28;20124;-77
2022/07/12 02:28:44;;;;;;;21.88;9.82;;;14.80;99.90;;;;;;5074885;28;20397;-77
2022/07/12 02:31:10;;;;;;;31.02;10.35;;;14.80;99.90;;;;;;5074884;28;20039;-78
2022/07/12 02:33:36;;;;;;;47.35;10.60;;;14.80;99.90;;;;;;5074913;28;20469;-78
2022/07/12 02:36:02;;;;;;;43.85;10.93;;;14.80;99.90;;;;;;5073487;28;20463;-77
2022/07/12 02:38:29;;;;;;;80.88;12.20;;;14.80;99.90;;;;;;5074783;28;20041;-77
2022/07/12 02:40:54;;;;;;;38.15;9.85;;;14.80;99.90;;;;;;5074783;28;20051;-77
2022/07/12 02:43:28;;;;;;;24.15;10.57;;;14.80;99.90;;;;;;5074682;28;20040;-77
2022/07/12 02:45:56;;;;;;;22.90;10.15;;;14.80;99.90;;;;;;5074438;28;20553;-77
2022/07/12 02:48:22;;;;;;;22.67;10.30;;;14.80;99.90;;;;;;5074424;28;20063;-77
2022/07/12 02:50:48;;;;;;;29.92;11.95;;;14.80;99.90;;;;;;5074536;28;20036;-77
2022/07/12 02:53:14;;;;;;;85.20;12.45;;;14.80;99.90;;;;;;5074529;28;20068;-78
2022/07/12 02:55:40;;;;;;;20.33;10.55;;;14.80;99.90;;;;;;5074370;28;20494;-77
2022/07/12 02:58:06;;;;;;;26.58;9.95;;;14.80;99.90;;;;;;5074444;28;20522;-77
2022/07/12 03:00:32;;;;;;;60.08;11.73;;;14.70;99.90;;;;;;5072954;28;20089;-77
2022/07/12 03:02:58;;;;;;;30.05;11.07;;;14.80;99.90;;;;;;5074377;28;20392;-77
2022/07/12 03:05:24;;;;;;;73.88;12.30;;;14.80;99.90;;;;;;5074303;28;20039;-77
2022/07/12 03:07:50;;;;;;;64.68;12.18;;;14.80;99.90;;;;;;5074167;28;20037;-77
2022/07/12 03:10:16;;;;;;;32.53;11.88;;;14.70;99.90;;;;;;5073940;28;20036;-77
2022/07/12 03:12:42;;;;;;;35.70;12.48;;;14.70;99.90;;;;;;5074003;28;20036;-77
2022/07/12 03:15:08;;;;;;;73.50;12.68;;;14.70;99.90;;;;;;5073642;28;20367;-77
2022/07/12 03:17:34;;;;;;;28.55;11.90;;;14.70;99.90;;;;;;5073517;28;20044;-77
2022/07/12 03:20:00;;;;;;;64.22;12.93;;;14.70;99.90;;;;;;5072874;28;20068;-77
2022/07/12 03:22:26;;;;;;;30.92;11.95;;;14.70;99.90;;;;;;5073001;28;20044;-77
2022/07/12 03:24:52;;;;;;;43.80;11.57;;;14.80;99.90;;;;;;5088151;28;20045;-77
2022/07/12 03:27:18;;;;;;;32.80;11.65;;;14.70;99.90;;;;;;5071987;28;20049;-77
2022/07/12 03:29:43;;;;;;;26.58;11.68;;;14.70;99.90;;;;;;5087384;28;20052;-77
2022/07/12 03:32:09;;;;;;;25.02;11.68;;;14.70;99.90;;;;;;5071955;28;20055;-77
2022/07/12 03:34:36;;;;;;;38.28;11.98;;;14.80;99.90;;;;;;5072344;28;20106;-77
2022/07/12 03:37:02;;;;;;;45.78;12.25;;;14.80;99.90;;;;;;5073855;28;20040;-77
2022/07/12 03:39:27;;;;;;;60.97;11.35;;;14.80;99.90;;;;;;5073766;28;20044;-77
2022/07/12 03:41:53;;;;;;;88.13;12.98;;;14.80;99.90;;;;;;5073422;28;20113;-77
2022/07/12 03:44:19;;;;;;;119.40;13.75;;;14.80;99.90;;;;;;5089111;28;20044;-77
2022/07/12 03:46:44;;;;;;;59.10;11.70;;;14.70;99.90;;;;;;5073603;28;20045;-77
2022/07/12 03:49:10;;;;;;;47.08;11.02;;;14.70;99.90;;;;;;5073594;28;20048;-77
2022/07/12 03:51:36;;;;;;;24.42;10.13;;;14.70;99.90;;;;;;5073540;28;20056;-77
2022/07/12 03:54:02;;;;;;;17.30;9.93;;;14.80;99.90;;;;;;5073553;28;20153;-77
2022/07/12 03:59:12;;;;;;;31.88;10.15;;;14.80;99.90;;;;;;5088848;28;20051;-78
2022/07/12 04:01:38;;;;;;;58.33;11.65;;;14.80;99.90;;;;;;5073502;28;20040;-78
2022/07/12 04:04:03;;;;;;;46.80;10.20;;;14.70;99.90;;;;;;5073297;28;20036;-77
2022/07/12 04:06:29;;;;;;;23.05;10.20;;;14.80;99.90;;;;;;5073549;28;20479;-77
2022/07/12 04:08:55;;;;;;;23.88;10.07;;;14.80;99.90;;;;;;5073420;28;20135;-77
2022/07/12 04:11:20;;;;;;;29.88;10.27;;;14.80;99.90;;;;;;5073193;28;20048;-77
2022/07/12 04:13:46;;;;;;;46.28;10.40;;;14.90;99.90;;;;;;5073527;28;20044;-77
2022/07/12 04:16:12;;;;;;;30.70;10.60;;;14.90;99.90;;;;;;5077474;28;20041;-77
2022/07/12 04:18:38;;;;;;;35.38;10.63;;;14.80;99.90;;;;;;5077334;28;20395;-77
2022/07/12 04:21:04;;;;;;;48.08;10.55;;;14.90;99.90;;;;;;5077026;28;20060;-77
2022/07/12 04:23:29;;;;;;;24.00;9.15;;;14.90;99.90;;;;;;5077324;28;20041;-77
2022/07/12 04:25:55;;;;;;;30.48;10.00;;;14.90;99.90;;;;;;5077309;28;20124;-77
2022/07/12 04:28:21;;;;;;;26.08;9.10;;;14.90;99.90;;;;;;5077079;28;20449;-77
2022/07/12 04:30:48;;;;;;;41.28;8.40;;;14.90;99.90;;;;;;5077123;28;20098;-77
2022/07/12 04:33:14;;;;;;;30.95;7.78;;;14.90;99.90;;;;;;5077107;28;20483;-77
2022/07/12 04:35:40;;;;;;;23.05;7.57;;;14.80;99.90;;;;;;5076707;28;20123;-77
2022/07/12 04:38:07;;;;;;;49.70;8.57;;;14.80;99.90;;;;;;5077001;28;20051;-78
2022/07/12 04:40:33;;;;;;;64.07;8.10;;;14.70;99.90;;;;;;5076988;28;20052;-77
2022/07/12 04:42:59;;;;;;;30.35;9.63;;;14.70;99.90;;;;;;5075535;28;20052;-78
2022/07/12 04:45:25;;;;;;;18.55;6.82;;;14.70;99.90;;;;;;5077041;28;20037;-77
2022/07/12 04:47:50;;;;;;;36.75;7.22;;;14.70;99.90;;;;;;5076825;28;20399;-77
2022/07/12 04:50:16;;;;;;;26.35;7.53;;;14.70;99.90;;;;;;5076650;28;20135;-77
2022/07/12 04:52:42;;;;;;;27.90;7.15;;;14.70;99.90;;;;;;5076767;28;20043;-77
2022/07/12 04:55:08;;;;;;;13.95;7.20;;;14.70;99.90;;;;;;5076728;28;20040;-77
2022/07/12 04:57:34;;;;;;;13.55;6.57;;;14.80;99.90;;;;;;5076740;28;20037;-77
2022/07/12 04:59:59;;;;;;;13.27;6.88;;;14.90;99.90;;;;;;5076649;28;20040;-77
2022/07/12 05:02:26;;;;;;;22.02;8.00;;;14.80;99.90;;;;;;5076433;28;20434;-77
2022/07/12 05:04:52;;;;;;;18.63;7.63;;;14.80;99.90;;;;;;5076665;28;20076;-77
2022/07/12 05:07:18;;;;;;;34.72;8.23;;;14.90;99.90;;;;;;5076571;28;20119;-77
2022/07/12 05:09:43;;;;;;;19.25;7.15;;;14.90;99.90;;;;;;5076397;28;20098;-77
2022/07/12 05:12:09;;;;;;;14.88;7.90;;;14.90;99.90;;;;;;5076437;28;20043;-77
2022/07/12 05:14:34;;;;;;;21.25;6.47;;;15.00;99.90;;;;;;5076368;28;20049;-77
2022/07/12 05:17:00;;;;;;;35.13;8.25;;;15.00;99.90;;;;;;5076099;28;20040;-77
2022/07/12 05:19:26;;;;;;;25.80;7.28;;;15.00;99.90;;;;;;5076111;28;20041;-77
2022/07/12 05:21:52;;;;;;;18.92;7.45;;;15.00;99.90;;;;;;5076045;28;20098;-77
2022/07/12 05:24:17;;;;;;;14.43;7.35;;;15.00;99.90;;;;;;5075997;28;20063;-77
2022/07/12 05:26:43;;;;;;;20.58;7.57;;;14.90;99.90;;;;;;5076207;28;20036;-77
2022/07/12 05:29:08;;;;;;;22.92;7.78;;;15.00;99.90;;;;;;5076098;28;20056;-77
2022/07/12 05:31:35;;;;;;;13.88;7.72;;;15.00;99.90;;;;;;5076150;28;20036;-77
2022/07/12 05:34:00;;;;;;;20.80;7.95;;;15.10;99.90;;;;;;5076015;28;20048;-77
2022/07/12 05:36:26;;;;;;;17.48;7.25;;;15.10;99.90;;;;;;5076042;28;20361;-77
2022/07/12 05:38:52;;;;;;;13.68;6.95;;;15.20;99.90;;;;;;5075925;28;20052;-77
2022/07/12 05:41:18;;;;;;;17.15;7.75;;;15.20;99.90;;;;;;5075911;28;20044;-77
2022/07/12 05:43:43;;;;;;;14.73;7.40;;;15.20;99.90;;;;;;5075888;28;20041;-77
2022/07/12 05:46:10;;;;;;;20.58;7.75;;;15.20;99.90;;;;;;5075720;28;20033;-77
2022/07/12 05:48:36;;;;;;;15.80;7.95;;;15.20;99.90;;;;;;5074171;28;20048;-77
2022/07/12 05:53:47;;;;;;;12.32;7.15;;;15.30;99.90;;;;;;5075718;28;20055;-77
2022/07/12 05:56:13;;;;;;;14.65;7.50;;;15.40;99.90;;;;;;5075399;28;20483;-77
2022/07/12 05:58:39;;;;;;;14.80;7.35;;;15.40;99.90;;;;;;5075585;28;20041;-78
2022/07/12 06:01:05;;;;;;;14.98;7.90;;;15.40;99.90;;;;;;5075384;28;20395;-77
2022/07/12 06:03:31;;;;;;;14.60;7.75;;;15.50;99.90;;;;;;5075232;28;20059;-77
2022/07/12 06:05:56;;;;;;;14.48;7.53;;;15.50;99.90;;;;;;5075389;28;20036;-77
2022/07/12 06:08:22;;;;;;;12.63;7.15;;;15.60;99.90;;;;;;5075288;28;20049;-76
2022/07/12 06:10:48;;;;;;;12.90;7.30;;;15.60;99.90;;;;;;5081017;28;20066;-77
2022/07/12 06:13:14;;;;;;;12.70;7.20;;;15.60;99.90;;;;;;5095623;28;20131;-76
2022/07/12 06:15:40;;;;;;;12.30;7.18;;;15.60;99.90;;;;;;5074844;28;20049;-77
2022/07/12 06:18:06;;;;;;;12.80;7.30;;;15.70;99.90;;;;;;5074744;28;20094;-77
2022/07/12 06:20:31;;;;;;;12.77;8.23;;;15.80;99.90;;;;;;5074723;28;20045;-76
2022/07/12 06:22:57;;;;;;;14.75;8.77;;;15.80;99.90;;;;;;5074926;28;20143;-77
2022/07/12 06:25:23;;;;;;;14.55;8.95;;;16.00;99.90;;;;;;5074722;28;20066;-77
2022/07/12 06:27:50;;;;;;;13.82;8.02;;;16.10;99.90;;;;;;5074489;28;20065;-77
2022/07/12 06:30:19;;;;;;;12.10;8.35;;;16.20;99.90;;;;;;5073322;28;20083;-76
2022/07/12 06:32:46;;;;;;;13.68;8.45;;;16.30;99.90;;;;;;5074650;28;20115;-77
2022/07/12 06:35:13;;;;;;;13.57;9.13;;;16.30;99.90;;;;;;5074726;28;20055;-77
2022/07/12 06:37:38;;;;;;;13.23;8.90;;;16.40;99.90;;;;;;5073866;28;20487;-78
2022/07/12 06:40:06;;;;;;;12.70;8.50;;;16.50;99.90;;;;;;5074254;28;20055;-77
2022/07/12 06:42:31;;;;;;;13.10;8.77;;;16.60;99.90;;;;;;5073014;28;20051;-77
2022/07/12 06:44:57;;;;;;;13.77;9.02;;;16.80;99.90;;;;;;5072900;28;20399;-77
2022/07/12 06:47:23;;;;;;;12.50;8.63;;;16.90;99.90;;;;;;5074283;28;20452;-77
2022/07/12 06:49:48;;;;;;;15.60;9.10;;;17.10;99.90;;;;;;5072882;28;20514;-78
2022/07/12 06:52:14;;;;;;;11.30;8.38;;;17.20;99.90;;;;;;5074135;28;20352;-78
2022/07/12 06:54:40;;;;;;;11.43;8.05;;;17.30;99.90;;;;;;5074375;28;20483;-78
2022/07/12 06:57:06;;;;;;;12.82;8.15;;;17.40;99.90;;;;;;5074535;28;20045;-78
2022/07/12 06:59:32;;;;;;;12.85;8.43;;;17.50;99.90;;;;;;5074168;28;20051;-78
2022/07/12 07:01:57;;;;;;;13.13;8.40;;;17.60;99.90;;;;;;5074353;28;20048;-78
2022/07/12 07:04:24;;;;;;;13.35;8.57;;;17.80;99.90;;;;;;5074064;28;20074;-78
2022/07/12 07:06:50;;;;;;;12.00;7.95;;;17.80;99.90;;;;;;5074304;28;20094;-78
2022/07/12 07:09:16;;;;;;;13.45;8.55;;;17.90;99.90;;;;;;5074100;28;20062;-78
2022/07/12 07:11:41;;;;;;;10.98;7.35;;;18.00;99.90;;;;;;5074179;28;20439;-78
2022/07/12 07:14:07;;;;;;;12.13;8.32;;;18.20;99.90;;;;;;5074139;28;20058;-78
2022/07/12 07:16:33;;;;;;;9.70;7.47;;;18.30;99.90;;;;;;5074134;28;20395;-78
2022/07/12 07:18:58;;;;;;;8.18;6.30;;;18.40;99.90;;;;;;5073998;28;20372;-78
2022/07/12 07:21:24;;;;;;;8.93;6.53;;;18.50;99.90;;;;;;5073670;28;20052;-78
2022/07/12 07:23:50;;;;;;;9.80;6.88;;;18.60;99.90;;;;;;5074086;28;20123;-78
2022/07/12 07:26:16;;;;;;;9.85;6.72;;;18.70;99.90;;;;;;5073953;28;20045;-78
2022/07/12 07:31:26;;;;;;;8.65;6.18;;;18.80;99.90;;;;;;5073888;28;20044;-78
2022/07/12 07:33:52;;;;;;;12.05;6.68;;;18.80;99.90;;;;;;5073868;28;20157;-78
2022/07/12 07:36:17;;;;;;;8.98;5.40;;;18.80;99.90;;;;;;5072766;28;20048;-78
2022/07/12 07:38:43;;;;;;;8.32;6.03;;;18.90;99.90;;;;;;5073776;28;20032;-78
2022/07/12 07:41:09;;;;;;;8.20;5.18;;;19.00;99.90;;;;;;5073718;28;20441;-78
2022/07/12 07:43:34;;;;;;;8.23;5.18;;;19.00;99.90;;;;;;5073565;28;20037;-78
2022/07/12 07:46:01;;;;;;;7.80;5.35;;;19.00;99.90;;;;;;5072497;28;20041;-78
2022/07/12 07:48:28;;;;;;;7.18;5.15;;;19.20;99.90;;;;;;5072841;28;20044;-78
2022/07/12 07:50:54;;;;;;;7.32;5.25;;;19.20;99.90;;;;;;5073625;28;20048;-78
2022/07/12 07:53:20;;;;;;;6.60;4.90;;;19.20;99.90;;;;;;5073714;28;20045;-78
2022/07/12 07:55:45;;;;;;;6.28;4.57;;;19.30;99.90;;;;;;5073334;28;20133;-78
2022/07/12 07:58:11;;;;;;;5.75;4.47;;;19.50;99.90;;;;;;5073492;28;20044;-79
2022/07/12 08:00:37;;;;;;;16.90;4.80;;;19.50;99.90;;;;;;5073465;28;20127;-78
2022/07/12 08:03:03;;;;;;;6.20;4.65;;;19.60;99.90;;;;;;5073579;28;20048;-78
2022/07/12 08:05:28;;;;;;;6.13;4.70;;;19.80;99.90;;;;;;5073263;28;20482;-78
2022/07/12 08:07:54;;;;;;;7.03;5.18;;;19.80;99.90;;;;;;5073321;28;20579;-78
2022/07/12 08:10:19;;;;;;;6.85;4.47;;;19.90;99.90;;;;;;5073160;28;20044;-78
2022/07/12 08:12:45;;;;;;;6.93;5.05;;;20.00;99.90;;;;;;5073123;28;20064;-78
2022/07/12 08:15:12;;;;;;;6.28;4.20;;;20.00;99.90;;;;;;5073161;28;20052;-78
2022/07/12 08:17:37;;;;;;;7.47;4.95;;;20.10;99.90;;;;;;5073407;28;20051;-78
2022/07/12 08:20:04;;;;;;;5.78;4.53;;;20.10;99.90;;;;;;5073125;28;20040;-78
2022/07/12 08:22:30;;;;;;;6.55;4.40;;;20.20;99.90;;;;;;5073236;28;20487;-78
2022/07/12 08:24:56;;;;;;;5.47;4.10;;;20.10;99.90;;;;;;5072034;28;20055;-78
2022/07/12 08:27:21;;;;;;;7.90;4.60;;;20.20;99.90;;;;;;5073330;28;20044;-78
2022/07/12 08:29:47;;;;;;;6.75;4.30;;;20.40;99.90;;;;;;5073248;28;20134;-78
2022/07/12 08:32:13;;;;;;;5.55;4.45;;;20.60;99.90;;;;;;5073297;28;20044;-78
2022/07/12 08:34:39;;;;;;;6.90;4.50;;;20.60;99.90;;;;;;5073244;28;20106;-78
2022/07/12 08:37:05;;;;;;;6.57;3.75;;;20.80;99.90;;;;;;5073045;28;20044;-78
2022/07/12 08:39:30;;;;;;;6.43;4.32;;;21.10;99.90;;;;;;5072931;28;20040;-78
2022/07/12 08:41:56;;;;;;;6.60;4.68;;;21.20;99.90;;;;;;5073175;28;20040;-78
2022/07/12 08:44:22;;;;;;;6.75;4.30;;;21.20;99.90;;;;;;5073111;28;20041;-78
2022/07/12 08:46:47;;;;;;;5.13;4.13;;;21.30;99.90;;;;;;5073223;28;20051;-78
2022/07/12 08:49:13;;;;;;;8.05;5.38;;;21.30;99.90;;;;;;5073105;28;20040;-78
2022/07/12 08:51:39;;;;;;;7.65;4.60;;;21.40;99.90;;;;;;5071691;28;20045;-78
2022/07/12 08:54:06;;;;;;;6.30;4.85;;;21.60;99.90;;;;;;5073063;28;20047;-78
2022/07/12 08:56:34;;;;;;;5.68;4.18;;;21.70;99.90;;;;;;5073030;28;20047;-78
2022/07/12 08:59:10;;;;;;;9.38;4.65;;;21.90;99.90;;;;;;5072877;28;20508;-78
2022/07/12 09:01:42;;;;;;;5.70;3.53;;;22.10;99.90;;;;;;5076467;28;20094;-78
2022/07/12 09:04:13;;;;;;;6.28;3.92;;;22.30;99.90;;;;;;5076452;28;20097;-78
2022/07/12 09:06:39;;;;;;;6.00;4.28;;;22.30;99.90;;;;;;5076492;28;20076;-78
2022/07/12 09:09:04;;;;;;;5.07;3.50;;;22.40;99.90;;;;;;5076466;28;20083;-78
2022/07/12 09:11:30;;;;;;;8.23;4.03;;;22.30;99.90;;;;;;5076505;28;20429;-78
2022/07/12 09:13:57;;;;;;;4.72;3.80;;;22.30;99.90;;;;;;5076519;28;20048;-78
2022/07/12 09:16:25;;;;;;;6.28;3.88;;;22.30;99.90;;;;;;5075387;28;20098;-78
2022/07/12 09:19:11;;;;;;;5.53;3.58;;;22.30;99.90;;;;;;5076388;28;20040;-78
2022/07/12 09:21:36;;;;;;;5.43;3.53;;;22.20;99.90;;;;;;5075979;28;20133;-78
2022/07/12 09:24:02;;;;;;;4.95;3.85;;;22.40;99.90;;;;;;5075040;28;20094;-79
2022/07/12 09:26:32;;;;;;;5.68;4.40;;;22.60;99.90;;;;;;5076186;28;20081;-78
2022/07/12 09:29:11;;;;;;;7.55;5.45;;;22.80;99.90;;;;;;5075854;28;20437;-78
2022/07/12 09:37:19;;;;;;;6.40;4.45;;;23.10;99.90;;;;;;5075892;28;20048;-78
2022/07/12 09:39:45;;;;;;;7.55;6.00;;;23.40;99.90;;;;;;5075939;28;20153;-79
2022/07/12 09:42:12;;;;;;;8.43;5.93;;;23.40;99.90;;;;;;5075996;28;20052;-78
2022/07/12 09:44:42;;;;;;;7.20;6.50;;;23.60;99.90;;;;;;5074436;28;20059;-79
2022/07/12 09:47:13;;;;;;;8.75;6.40;;;23.70;99.90;;;;;;5074608;28;20094;-79
2022/07/12 09:49:40;;;;;;;9.53;6.67;;;23.70;99.90;;;;;;5075646;28;20049;-79
2022/07/12 09:52:09;;;;;;;6.28;5.47;;;23.70;99.90;;;;;;5074269;28;20040;-78
2022/07/12 09:54:40;;;;;;;8.52;6.55;;;23.90;99.90;;;;;;5075667;28;20127;-79
2022/07/12 09:57:21;;;;;;;7.40;6.15;;;24.10;99.90;;;;;;5075770;28;20102;-79
2022/07/12 09:59:49;;;;;;;10.30;5.78;;;24.30;99.90;;;;;;5075649;28;20044;-78
2022/07/12 10:02:15;;;;;;;9.45;7.32;;;24.40;99.90;;;;;;5075591;28;20048;-79
2022/07/12 10:04:42;;;;;;;10.20;7.05;;;24.40;99.90;;;;;;5075381;28;20087;-79
2022/07/12 10:07:09;;;;;;;7.68;6.68;;;24.30;99.90;;;;;;5075107;28;20404;-79
2022/07/12 10:09:36;;;;;;;10.35;7.97;;;24.50;99.90;;;;;;5075347;28;20052;-79
2022/07/12 10:12:03;;;;;;;8.50;6.65;;;24.40;99.90;;;;;;5074258;28;20502;-79
2022/07/12 10:14:29;;;;;;;8.10;6.82;;;24.50;99.90;;;;;;5075119;28;20492;-79
2022/07/12 10:16:56;;;;;;;9.88;6.57;;;24.60;99.90;;;;;;5075098;28;20150;-78
2022/07/12 10:19:32;;;;;;;9.68;8.02;;;24.70;99.90;;;;;;5074999;28;20063;-79
2022/07/12 10:22:00;;;;;;;8.90;7.07;;;24.70;99.90;;;;;;5075180;28;20060;-79
2022/07/12 10:24:41;;;;;;;11.35;6.57;;;24.80;99.90;;;;;;5073662;28;20048;-79
2022/07/12 10:27:16;;;;;;;10.02;6.07;;;24.90;99.90;;;;;;5075093;28;20044;-79
2022/07/12 10:29:43;;;;;;;7.68;5.97;;;25.00;99.90;;;;;;5073558;28;20067;-79
2022/07/12 10:32:26;;;;;;;8.85;6.18;;;25.10;99.90;;;;;;5073687;28;20400;-79
2022/07/12 10:34:58;;;;;;;10.90;6.32;;;25.20;99.90;;;;;;5073527;28;20040;-79
2022/07/12 10:37:24;;;;;;;9.20;6.30;;;25.20;99.90;;;;;;5073325;28;20082;-79
2022/07/12 10:40:12;;;;;;;8.40;6.47;;;25.30;99.90;;;;;;5074827;28;20071;-79
2022/07/12 10:42:38;;;;;;;9.60;7.10;;;25.10;99.90;;;;;;5074741;28;20119;-79
2022/07/12 10:45:15;;;;;;;7.38;5.43;;;25.00;99.90;;;;;;5074639;28;20048;-79
2022/07/12 10:47:54;;;;;;;7.63;5.22;;;25.20;99.90;;;;;;5074633;28;20123;-79
2022/07/12 10:50:40;;;;;;;6.50;4.43;;;25.30;99.90;;;;;;5074498;28;20434;-79
2022/07/12 10:53:29;;;;;;;7.65;5.68;;;25.30;99.90;;;;;;5074289;28;20046;-79
2022/07/12 10:56:06;;;;;;;8.00;5.47;;;25.30;99.90;;;;;;5074537;28;20045;-79
2022/07/12 10:58:36;;;;;;;6.80;5.20;;;25.30;99.90;;;;;;5074403;28;20045;-79
2022/07/12 11:01:04;;;;;;;9.18;6.70;;;25.30;99.90;;;;;;5074304;28;20080;-78
2022/07/12 11:03:32;;;;;;;7.63;5.63;;;25.40;99.90;;;;;;5074389;28;20044;-79
2022/07/12 11:06:05;;;;;;;9.20;8.18;;;25.50;99.90;;;;;;5074165;28;20052;-79
2022/07/12 11:08:31;;;;;;;8.07;5.85;;;25.70;99.90;;;;;;5072909;28;20169;-79
2022/07/12 11:10:57;;;;;;;7.93;6.47;;;26.00;99.90;;;;;;5074225;28;20048;-79
2022/07/12 11:13:25;;;;;;;8.43;6.40;;;26.10;99.90;;;;;;5074241;28;20044;-79
2022/07/12 11:16:01;;;;;;;9.18;5.68;;;26.20;99.90;;;;;;5073921;28;20044;-79
2022/07/12 11:18:37;;;;;;;8.63;7.72;;;26.40;99.90;;;;;;5074176;28;20048;-79
2022/07/12 11:21:04;;;;;;;6.78;5.65;;;26.30;99.90;;;;;;5073714;28;20061;-79
2022/07/12 11:23:31;;;;;;;7.85;5.65;;;26.40;99.90;;;;;;5073957;28;20047;-79
2022/07/12 11:26:00;;;;;;;5.30;4.18;;;26.40;99.90;;;;;;5074046;28;20145;-80
2022/07/12 11:28:30;;;;;;;9.23;4.35;;;26.40;99.90;;;;;;5073613;28;20055;-79
2022/07/12 11:31:07;;;;;;;7.78;5.00;;;26.40;99.90;;;;;;5072446;28;20415;-79
2022/07/12 11:33:38;;;;;;;5.28;4.22;;;26.50;99.90;;;;;;5073528;28;20476;-79
2022/07/12 11:36:06;;;;;;;7.25;6.20;;;26.70;99.90;;;;;;5073986;28;20037;-79
2022/07/12 11:38:33;;;;;;;6.55;5.68;;;26.80;99.90;;;;;;5073770;28;20056;-79
2022/07/12 11:41:00;;;;;;;6.80;5.53;;;26.70;99.90;;;;;;5073504;28;20423;-79
2022/07/12 11:43:27;;;;;;;7.60;5.45;;;26.60;99.90;;;;;;5073791;28;20045;-80
2022/07/12 11:45:54;;;;;;;7.70;5.78;;;26.60;99.90;;;;;;5073606;28;20475;-79
2022/07/12 11:48:20;;;;;;;7.38;4.22;;;26.70;99.90;;;;;;5072395;28;20041;-79
2022/07/12 11:50:47;;;;;;;6.70;4.80;;;26.90;99.90;;;;;;5073826;28;20067;-79
2022/07/12 11:53:26;;;;;;;5.95;3.60;;;27.10;99.90;;;;;;5073512;28;20083;-79
2022/07/12 11:55:55;;;;;;;5.78;4.30;;;27.10;99.90;;;;;;5073687;28;20123;-79
2022/07/12 11:58:22;;;;;;;6.35;3.30;;;27.30;99.90;;;;;;5072149;28;20415;-79
2022/07/12 12:00:48;;;;;;;5.47;3.83;;;27.40;99.90;;;;;;5072716;28;20510;-79
2022/07/12 12:03:16;;;;;;;5.43;3.28;;;27.40;99.90;;;;;;5073388;28;20044;-79
2022/07/12 12:05:43;;;;;;;4.03;2.70;;;27.40;99.90;;;;;;5073252;28;20052;-79
2022/07/12 12:08:11;;;;;;;5.45;2.55;;;27.30;99.90;;;;;;5073130;28;20049;-79
2022/07/12 12:10:37;;;;;;;3.10;1.90;;;27.30;99.90;;;;;;5073483;28;20044;-79
2022/07/12 12:13:03;;;;;;;4.25;1.58;;;27.30;99.90;;;;;;5073473;28;20047;-79
2022/07/12 12:15:31;;;;;;;3.47;2.10;;;27.30;99.90;;;;;;5073335;28;20052;-79
2022/07/12 12:18:04;;;;;;;3.63;2.60;;;27.30;99.90;;;;;;5073221;28;20044;-79
2022/07/12 12:20:43;;;;;;;4.15;2.47;;;27.30;99.90;;;;;;5073059;28;20060;-79
2022/07/12 12:23:17;;;;;;;5.32;3.00;;;27.40;99.90;;;;;;5073406;28;20049;-79
2022/07/12 12:25:43;;;;;;;5.35;3.00;;;27.20;99.90;;;;;;5072112;28;20052;-79
2022/07/12 12:28:10;;;;;;;6.32;3.40;;;27.10;99.90;;;;;;5073256;28;20047;-79
2022/07/12 12:30:52;;;;;;;4.78;3.30;;;27.10;99.90;;;;;;5073214;28;20095;-79
2022/07/12 12:33:36;;;;;;;4.95;2.80;;;27.10;99.90;;;;;;5073431;28;20079;-79
2022/07/12 12:36:21;;;;;;;6.97;3.72;;;27.10;99.90;;;;;;5075618;28;20128;-79
2022/07/12 12:57:52;;;;;;;10.13;4.60;;;27.40;99.90;;;;;;5076703;28;20066;-79
2022/07/12 13:00:18;;;;;;;8.70;4.22;;;27.30;99.90;;;;;;5075316;28;20052;-79
2022/07/12 13:02:44;;;;;;;6.05;3.70;;;27.00;99.90;;;;;;5076510;28;20036;-79
2022/07/12 13:05:09;;;;;;;5.75;3.65;;;26.90;99.90;;;;;;5076390;28;20087;-79
2022/07/12 13:07:35;;;;;;;5.35;2.83;;;26.80;99.90;;;;;;5076637;28;20471;-79
2022/07/12 13:10:00;;;;;;;5.00;4.00;;;26.70;99.90;;;;;;5075062;28;20053;-79
2022/07/12 13:12:26;;;;;;;6.47;3.20;;;26.60;99.90;;;;;;5076180;28;20045;-79
2022/07/12 13:14:52;;;;;;;5.78;2.58;;;26.50;99.90;;;;;;5076587;28;20045;-78